createdAt,value
2023-05-09T00:00:11.241Z,5.13
2023-05-09T00:05:16.786Z,5.27
2023-05-09T00:10:24.585Z,4.70
2023-05-09T00:15:30.679Z,4.30
2023-05-09T00:20:36.948Z,4.63
2023-05-09T00:25:44.680Z,4.80
2023-05-09T00:30:49.809Z,4.07
2023-05-09T00:35:55.106Z,4.17
2023-05-09T00:41:04.773Z,4.20
2023-05-09T00:46:10.417Z,4.60
2023-05-09T00:51:17.136Z,3.90
2023-05-09T00:56:25.082Z,3.50
2023-05-09T01:01:30.362Z,3.77
2023-05-09T01:06:41.948Z,3.47
2023-05-09T01:11:56.864Z,3.57
2023-05-09T01:17:09.186Z,3.87
2023-05-09T01:22:17.755Z,3.97
2023-05-09T01:27:38.615Z,3.70
2023-05-09T01:32:46.786Z,4.03
2023-05-09T01:37:53.188Z,3.90
2023-05-09T01:43:02.038Z,3.93
2023-05-09T01:48:11.622Z,3.30
2023-05-09T01:53:20.819Z,4.37
2023-05-09T01:58:28.692Z,3.77
2023-05-09T02:03:37.733Z,3.77
2023-05-09T02:08:43.615Z,4.30
2023-05-09T02:13:48.949Z,3.80
2023-05-09T02:18:56.752Z,3.83
2023-05-09T02:24:02.018Z,3.90
2023-05-09T02:29:10.091Z,4.33
2023-05-09T02:34:19.565Z,3.77
2023-05-09T02:39:24.680Z,3.80
2023-05-09T02:44:29.895Z,4.30
2023-05-09T02:49:38.157Z,4.23
2023-05-09T02:54:43.737Z,4.07
2023-05-09T02:59:48.880Z,4.13
2023-05-09T03:04:56.898Z,3.77
2023-05-09T03:10:02.061Z,4.30
2023-05-09T03:15:10.488Z,4.63
2023-05-09T03:20:23.379Z,4.10
2023-05-09T03:25:29.096Z,4.17
2023-05-09T03:30:34.236Z,3.97
2023-05-09T03:35:42.866Z,4.37
2023-05-09T03:40:50.874Z,4.30
2023-05-09T03:45:56.863Z,4.40
2023-05-09T03:51:07.276Z,4.77
2023-05-09T03:56:16.669Z,5.17
2023-05-09T04:01:27.657Z,4.50
2023-05-09T04:06:39.807Z,5.27
2023-05-09T04:11:47.345Z,4.63
2023-05-09T04:16:54.012Z,4.70
2023-05-09T04:22:02.427Z,3.93
2023-05-09T04:27:08.227Z,4.40
2023-05-09T04:32:15.275Z,3.50
2023-05-09T04:37:23.577Z,3.73
2023-05-09T04:42:29.182Z,3.83
2023-05-09T04:47:34.712Z,3.53
2023-05-09T04:52:42.637Z,4.53
2023-05-09T04:57:47.903Z,3.47
2023-05-09T05:02:53.130Z,3.40
2023-05-09T05:08:01.122Z,3.70
2023-05-09T05:13:11.752Z,3.43
2023-05-09T05:18:20.924Z,3.53
2023-05-09T05:23:37.157Z,3.47
2023-05-09T05:28:55.720Z,2.70
2023-05-09T05:34:03.323Z,3.80
2023-05-09T05:39:13.095Z,3.33
2023-05-09T05:44:21.448Z,3.33
2023-05-09T05:49:28.666Z,2.90
2023-05-09T05:54:40.549Z,3.37
2023-05-09T05:59:46.210Z,3.43
2023-05-09T06:04:53.289Z,3.50
2023-05-09T06:10:02.282Z,2.83
2023-05-09T06:15:11.902Z,2.80
2023-05-09T06:20:20.668Z,2.93
2023-05-09T06:25:30.939Z,2.90
2023-05-09T06:30:41.146Z,2.67
2023-05-09T06:35:57.461Z,3.00
2023-05-09T06:41:09.492Z,2.70
2023-05-09T06:46:14.877Z,2.67
2023-05-09T06:51:19.905Z,3.03
2023-05-09T06:57:00.651Z,2.73
2023-05-09T07:02:12.849Z,3.20
2023-05-09T07:07:17.913Z,3.00
2023-05-09T07:12:25.608Z,3.40
2023-05-09T07:17:31.057Z,2.73
2023-05-09T07:22:43.717Z,3.43
2023-05-09T07:27:51.865Z,3.30
2023-05-09T07:32:57.125Z,3.10
2023-05-09T07:38:06.482Z,2.87
2023-05-09T07:43:16.102Z,3.03
2023-05-09T07:48:21.582Z,2.50
2023-05-09T07:53:26.996Z,3.00
2023-05-09T07:58:37.728Z,2.70
2023-05-09T08:03:43.200Z,2.60
2023-05-09T08:08:48.638Z,2.83
2023-05-09T08:14:01.166Z,2.53
2023-05-09T08:19:06.398Z,3.17
2023-05-09T08:24:13.942Z,2.67
2023-05-09T08:29:21.557Z,2.37
2023-05-09T08:34:27.294Z,2.50
2023-05-09T08:39:35.074Z,2.63
2023-05-09T08:44:44.640Z,2.57
2023-05-09T08:49:51.010Z,2.60
2023-05-09T08:54:56.824Z,3.33
2023-05-09T09:00:13.145Z,2.60
2023-05-09T09:05:34.600Z,2.80
2023-05-09T09:10:48.508Z,2.67
2023-05-09T09:15:58.319Z,2.30
2023-05-09T09:21:10.703Z,2.70
2023-05-09T09:26:16.902Z,2.57
2023-05-09T09:31:29.434Z,2.20
2023-05-09T09:36:36.925Z,2.50
2023-05-09T09:41:46.942Z,2.80
2023-05-09T09:46:56.626Z,2.50
2023-05-09T09:52:02.523Z,2.50
2023-05-09T09:57:09.545Z,2.70
2023-05-09T10:02:18.770Z,2.50
2023-05-09T10:07:26.503Z,2.03
2023-05-09T10:12:34.555Z,2.10
2023-05-09T10:17:44.553Z,2.53
2023-05-09T10:22:51.389Z,2.33
2023-05-09T10:28:01.812Z,1.80
2023-05-09T10:33:12.641Z,2.10
2023-05-09T10:38:22.683Z,2.00
2023-05-09T10:43:27.731Z,3.00
2023-05-09T10:48:36.591Z,2.40
2023-05-09T10:53:46.307Z,2.10
2023-05-09T10:58:51.945Z,2.10
2023-05-09T11:04:01.618Z,1.80
2023-05-09T11:09:30.768Z,2.53
2023-05-09T11:14:40.983Z,2.30
2023-05-09T11:20:07.163Z,1.87
2023-05-09T11:25:17.193Z,1.97
2023-05-09T11:30:23.826Z,2.23
2023-05-09T11:35:31.796Z,1.80
2023-05-09T11:40:41.092Z,1.80
2023-05-09T11:45:50.055Z,1.70
2023-05-09T11:50:57.861Z,1.80
2023-05-09T11:56:06.527Z,1.63
2023-05-09T12:01:13.403Z,1.80
2023-05-09T12:06:23.304Z,1.83
2023-05-09T12:11:28.814Z,1.93
2023-05-09T12:16:33.924Z,2.10
2023-05-09T12:21:43.470Z,1.90
2023-05-09T12:26:48.911Z,1.77
2023-05-09T12:31:56.100Z,1.90
2023-05-09T12:37:08.297Z,2.17
2023-05-09T12:42:18.074Z,1.67
2023-05-09T12:47:25.765Z,1.90
2023-05-09T12:52:50.730Z,1.60
2023-05-09T12:58:06.306Z,2.60
2023-05-09T13:03:25.559Z,2.10
2023-05-09T13:08:34.922Z,2.43
2023-05-09T13:13:41.823Z,1.93
2023-05-09T13:18:49.346Z,1.80
2023-05-09T13:24:04.662Z,1.87
2023-05-09T13:29:09.776Z,1.80
2023-05-09T13:34:14.725Z,2.30
2023-05-09T13:39:26.998Z,3.10
2023-05-09T13:44:33.536Z,2.30
2023-05-09T13:49:38.945Z,1.60
2023-05-09T13:54:46.834Z,1.80
2023-05-09T13:59:52.194Z,2.30
2023-05-09T14:04:59.345Z,1.73
2023-05-09T14:10:11.841Z,2.20
2023-05-09T14:15:21.880Z,2.80
2023-05-09T14:20:27.552Z,1.87
2023-05-09T14:25:35.835Z,2.20
2023-05-09T14:30:40.997Z,2.23
2023-05-09T14:35:46.235Z,2.20
2023-05-09T14:40:53.848Z,2.43
2023-05-09T14:45:59.140Z,2.50
2023-05-09T14:51:06.714Z,2.30
2023-05-09T14:56:14.447Z,2.50
2023-05-09T15:01:19.909Z,2.10
2023-05-09T15:06:25.470Z,2.17
2023-05-09T15:11:46.743Z,2.03
2023-05-09T15:16:57.683Z,2.50
2023-05-09T15:22:09.727Z,2.83
2023-05-09T15:27:19.375Z,2.53
2023-05-09T15:32:24.429Z,2.57
2023-05-09T15:37:29.849Z,2.23
2023-05-09T15:42:41.749Z,2.57
2023-05-09T15:47:46.904Z,2.40
2023-05-09T15:52:52.527Z,2.67
2023-05-09T15:58:00.502Z,3.30
2023-05-09T16:03:05.862Z,2.87
2023-05-09T16:08:12.657Z,2.30
2023-05-09T16:13:20.994Z,2.80
2023-05-09T16:18:26.464Z,2.87
2023-05-09T16:23:32.814Z,2.83
2023-05-09T16:28:41.704Z,2.83
2023-05-09T16:33:47.307Z,2.67
2023-05-09T16:38:52.356Z,2.90
2023-05-09T16:44:00.432Z,3.63
2023-05-09T16:49:05.426Z,3.50
2023-05-09T16:54:10.776Z,3.30
2023-05-09T16:59:18.871Z,2.97
2023-05-09T17:04:27.090Z,3.20
2023-05-09T17:09:32.116Z,3.33
2023-05-09T17:14:43.023Z,3.27
2023-05-09T17:19:48.728Z,3.30
2023-05-09T17:24:53.921Z,3.30
2023-05-09T17:30:01.715Z,3.77
2023-05-09T17:35:07.364Z,2.90
2023-05-09T17:40:13.506Z,3.30
2023-05-09T17:45:21.687Z,3.80
2023-05-09T17:50:27.144Z,3.50
2023-05-09T17:55:32.310Z,3.10
2023-05-09T18:00:40.037Z,4.40
2023-05-09T18:05:45.847Z,4.23
2023-05-09T18:10:50.969Z,4.07
2023-05-09T18:16:00.386Z,3.93
2023-05-09T18:21:08.146Z,3.53
2023-05-09T18:26:13.548Z,3.70
2023-05-09T18:31:22.692Z,3.73
2023-05-09T18:36:30.168Z,3.67
2023-05-09T18:41:37.952Z,3.77
2023-05-09T18:46:46.179Z,3.57
2023-05-09T18:51:51.781Z,3.30
2023-05-09T18:56:57.340Z,3.70
2023-05-09T19:02:06.283Z,3.90
2023-05-09T19:07:13.538Z,3.27
2023-05-09T19:12:22.201Z,3.87
2023-05-09T19:17:35.591Z,3.60
2023-05-09T19:22:46.902Z,3.57
2023-05-09T19:27:53.384Z,3.63
2023-05-09T19:33:02.234Z,3.00
2023-05-09T19:38:11.240Z,3.40
2023-05-09T19:43:17.136Z,3.77
2023-05-09T19:48:27.877Z,3.33
2023-05-09T19:53:33.507Z,3.30
2023-05-09T19:58:40.428Z,3.80
2023-05-09T20:03:52.413Z,3.40
2023-05-09T20:08:58.613Z,3.43
2023-05-09T20:14:06.442Z,3.37
2023-05-09T20:19:17.809Z,3.60
2023-05-09T20:24:23.382Z,3.60
2023-05-09T20:29:30.793Z,3.47
2023-05-09T20:34:39.852Z,3.23
2023-05-09T20:39:45.320Z,3.60
2023-05-09T20:44:51.745Z,3.90
2023-05-09T20:49:59.602Z,3.97
2023-05-09T20:55:05.578Z,3.13
2023-05-09T21:00:15.359Z,3.10
2023-05-09T21:05:23.401Z,3.30
2023-05-09T21:10:28.388Z,4.23
2023-05-09T21:15:35.948Z,3.10
2023-05-09T21:20:45.657Z,3.10
2023-05-09T21:25:53.064Z,3.23
2023-05-09T21:31:00.860Z,3.00
2023-05-09T21:36:08.932Z,3.07
2023-05-09T21:41:14.302Z,2.83
2023-05-09T21:46:19.308Z,3.17
2023-05-09T21:51:27.463Z,3.00
2023-05-09T21:56:32.568Z,2.90
2023-05-09T22:01:37.807Z,2.47
2023-05-09T22:06:45.592Z,2.80
2023-05-09T22:11:52.023Z,2.93
2023-05-09T22:16:58.487Z,2.83
2023-05-09T22:22:06.470Z,2.90
2023-05-09T22:27:11.694Z,2.97
2023-05-09T22:32:17.471Z,2.40
2023-05-09T22:37:27.358Z,3.43
2023-05-09T22:42:34.536Z,2.30
2023-05-09T22:47:39.646Z,2.70
2023-05-09T22:52:57.156Z,2.33
2023-05-09T22:58:05.982Z,2.47
2023-05-09T23:03:11.105Z,2.63
2023-05-09T23:08:16.468Z,2.50
2023-05-09T23:13:25.154Z,2.53
2023-05-09T23:18:30.297Z,2.63
2023-05-09T23:23:35.375Z,2.60
2023-05-09T23:28:44.351Z,2.60
2023-05-09T23:33:51.343Z,2.27
2023-05-09T23:38:56.870Z,2.30
2023-05-09T23:44:05.101Z,2.47
2023-05-09T23:49:16.507Z,2.77
2023-05-09T23:54:21.666Z,2.40
2023-05-09T23:59:32.073Z,2.50
